VRMM

Malé International Airport

Malé, Maldives
TAF VRMM 230500Z 2306/2412 25006KT 9999 FEW019 TEMPO 2306/2312 FEW019CB
Issued Valid From Valid To
Apr-23 @ 05:00 UTC
(4 hours ago)
Apr-23 @ 06:00 UTC
(3 hours ago)
Apr-24 @ 12:00 UTC
(-1 days ago)
Apr-23 @ 06:00 to Apr-24 @ 12:00
TAF VRMM 230500Z 2306/2412 25006KT 9999 FEW019
Wind Visibility Clouds
250° at 6 knots 10,000+ meters
  • Few at 1,900' AGL
Temporary Apr-23 @ 06:00 to Apr-23 @ 12:00
TEMPO 2306/2312 FEW019CB
Clouds
  • Few at 1,900' AGL
TAF VRMM 230500Z 2306/2412 25006KT 9999 FEW019 TEMPO 2306/2312 FEW019CB
Issued Apr-23 @ 05:00 UTC
(4 hours ago)
Valid From Apr-23 @ 06:00 UTC
(3 hours ago)
Valid To Apr-24 @ 12:00 UTC
(-1 days ago)
Apr-23 @ 06:00 - Apr-24 @ 12:00
Wind Visibility
250° at 6 knots 10,000+ meters
Clouds
  • Few at 1,900' AGL
Temporary Apr-23 @ 06:00 - Apr-23 @ 12:00
Clouds
  • Few at 1,900' AGL